createdAt,value
2023-05-03T00:01:35.806Z,52.63
2023-05-03T00:06:37.943Z,52.96
2023-05-03T00:11:35.243Z,53.00
2023-05-03T00:16:35.217Z,53.12
2023-05-03T00:21:32.121Z,52.96
2023-05-03T00:26:28.978Z,53.10
2023-05-03T00:31:25.445Z,53.20
2023-05-03T00:36:21.993Z,53.16
2023-05-03T00:41:19.678Z,53.37
2023-05-03T00:46:17.680Z,53.45
2023-05-03T00:51:15.116Z,53.68
2023-05-03T00:56:16.498Z,53.96
2023-05-03T01:01:13.036Z,53.84
2023-05-03T01:06:37.332Z,54.08
2023-05-03T01:11:52.442Z,54.33
2023-05-03T01:16:58.891Z,54.41
2023-05-03T01:22:07.817Z,54.47
2023-05-03T01:27:05.368Z,54.20
2023-05-03T01:32:05.269Z,54.95
2023-05-03T01:37:03.258Z,54.63
2023-05-03T01:42:02.046Z,54.95
2023-05-03T01:46:58.528Z,55.18
2023-05-03T01:51:55.081Z,54.87
2023-05-03T01:56:51.791Z,55.20
2023-05-03T02:01:48.291Z,55.09
2023-05-03T02:06:44.849Z,55.40
2023-05-03T02:11:41.606Z,55.32
2023-05-03T02:16:39.095Z,55.50
2023-05-03T02:21:37.821Z,55.98
2023-05-03T02:26:34.303Z,55.76
2023-05-03T02:31:30.912Z,55.50
2023-05-03T02:36:27.712Z,55.86
2023-05-03T02:41:24.219Z,55.72
2023-05-03T02:46:20.894Z,55.99
2023-05-03T02:51:19.808Z,55.55
2023-05-03T02:56:16.534Z,55.85
2023-05-03T03:01:13.193Z,55.71
2023-05-03T03:06:09.774Z,55.88
2023-05-03T03:11:06.890Z,55.83
2023-05-03T03:16:03.673Z,55.97
2023-05-03T03:21:03.313Z,55.94
2023-05-03T03:26:00.061Z,56.20
2023-05-03T03:30:56.988Z,56.03
2023-05-03T03:35:54.608Z,56.14
2023-05-03T03:40:52.268Z,56.36
2023-05-03T03:45:48.932Z,56.04
2023-05-03T03:50:45.602Z,56.27
2023-05-03T03:55:57.286Z,56.12
2023-05-03T04:00:53.824Z,56.09
2023-05-03T04:05:51.458Z,56.29
2023-05-03T04:10:56.335Z,56.74
2023-05-03T04:16:23.510Z,56.54
2023-05-03T04:21:42.696Z,56.79
2023-05-03T04:26:40.384Z,56.56
2023-05-03T04:31:37.207Z,56.66
2023-05-03T04:36:34.410Z,56.82
2023-05-03T04:41:30.954Z,56.81
2023-05-03T04:46:27.719Z,56.91
2023-05-03T04:51:24.316Z,56.67
2023-05-03T04:56:26.026Z,56.69
2023-05-03T05:25:39.085Z,56.98
2023-05-03T13:53:43.958Z,40.88
2023-05-03T14:05:01.614Z,40.79
2023-05-03T14:28:44.100Z,41.35
2023-05-03T14:33:41.024Z,41.48
2023-05-03T14:38:37.675Z,41.60
2023-05-03T14:43:37.622Z,41.31
2023-05-03T14:48:34.108Z,41.52
2023-05-03T14:53:30.892Z,41.40
2023-05-03T14:58:27.532Z,41.57
2023-05-03T15:03:24.559Z,41.51
2023-05-03T15:08:30.027Z,41.45
2023-05-03T15:13:31.875Z,41.34
2023-05-03T15:18:28.539Z,41.79
2023-05-03T15:23:25.080Z,41.65
2023-05-03T15:28:21.651Z,41.78
2023-05-03T15:33:18.342Z,41.89
2023-05-03T15:38:14.832Z,41.91
2023-05-03T15:43:11.260Z,41.83
2023-05-03T15:48:07.938Z,41.78
2023-05-03T15:53:04.440Z,41.62
2023-05-03T15:58:00.942Z,41.63
2023-05-03T16:02:58.057Z,41.99
2023-05-03T16:08:00.514Z,42.00
2023-05-03T16:12:57.065Z,41.84
2023-05-03T16:17:54.249Z,42.29
2023-05-03T16:22:59.573Z,42.31
2023-05-03T16:28:02.146Z,42.23
2023-05-03T16:40:25.212Z,42.25
2023-05-03T16:45:22.662Z,42.47
2023-05-03T17:02:18.208Z,42.96
2023-05-03T17:18:54.748Z,42.65
2023-05-03T17:23:53.257Z,43.12
2023-05-03T17:28:51.610Z,43.35
2023-05-03T17:33:49.211Z,42.94
2023-05-03T17:38:45.792Z,43.23
2023-05-03T17:43:42.812Z,43.52
2023-05-03T17:48:44.048Z,43.79
2023-05-03T17:53:41.632Z,43.79
2023-05-03T17:58:38.172Z,44.24
2023-05-03T18:03:36.614Z,43.95
2023-05-03T18:08:33.227Z,44.25
2023-05-03T20:29:09.971Z,48.22
2023-05-03T20:34:06.709Z,48.35
2023-05-03T20:39:14.245Z,48.55
2023-05-03T20:44:12.440Z,48.71
2023-05-03T20:49:41.586Z,48.95
2023-05-03T21:13:08.508Z,49.67
2023-05-03T21:24:16.549Z,49.77
2023-05-03T21:42:07.937Z,50.37
2023-05-03T22:18:37.995Z,51.56
2023-05-03T22:23:37.117Z,51.41
2023-05-03T22:39:36.180Z,52.17
2023-05-03T22:44:33.356Z,52.64
2023-05-03T22:49:29.907Z,52.41
2023-05-03T22:54:27.064Z,52.59
2023-05-03T22:59:23.599Z,52.75
2023-05-03T23:04:20.173Z,52.91
2023-05-03T23:09:16.702Z,53.04
2023-05-03T23:14:13.189Z,53.51
2023-05-03T23:19:09.927Z,53.37
2023-05-03T23:24:07.169Z,53.61
2023-05-03T23:29:03.706Z,54.02
2023-05-03T23:34:00.427Z,53.32
2023-05-03T23:38:57.250Z,53.97
2023-05-03T23:43:53.738Z,54.42
2023-05-03T23:48:50.434Z,54.18
2023-05-03T23:53:47.031Z,54.54
2023-05-03T23:59:21.716Z,54.81
